Terminal Aerodrome Forecast
Issued by NWS Charleston, WV

Home | Current Version | Previous Version | Text Only | Print | Product List | Glossary On
Versions: 1 2 3 4 5 6 7 8 9 10 11 12 13 14 15 16 17 18 19 20 21 22
000
FTUS41 KRLX 270300 AAB
TAFCRW
TAF AMD
KCRW 270308Z 2703/2724 00000KT 2SM BR OVC002
      TEMPO 2703/2705 4SM BR SCT002 BKN100
     FM270500 00000KT 4SM BR BKN010 BKN080
     FM271400 30004KT 5SM BR BKN015
     FM271600 29008KT 5SM BR BKN020
     FM271700 29008KT 6SM BR BKN025
     FM272100 28008KT 5SM -SHSN BKN030=

USA.gov is the U.S. government's official web portal to all federal, state and local government web resources and services.